createdAt,value
2023-05-16T00:00:09.254Z,11.55
2023-05-16T00:03:12.397Z,11.60
2023-05-16T00:06:13.808Z,11.56
2023-05-16T00:09:15.222Z,11.55
2023-05-16T00:12:17.846Z,11.55
2023-05-16T00:15:20.356Z,11.49
2023-05-16T00:18:22.242Z,11.50
2023-05-16T00:21:23.981Z,11.51
2023-05-16T00:24:25.785Z,11.47
2023-05-16T00:27:27.142Z,11.50
2023-05-16T00:30:28.853Z,11.38
2023-05-16T00:33:30.602Z,11.28
2023-05-16T00:36:32.299Z,11.19
2023-05-16T00:39:33.641Z,11.26
2023-05-16T00:42:35.065Z,11.38
2023-05-16T00:45:36.491Z,11.22
2023-05-16T00:48:37.833Z,11.32
2023-05-16T00:51:39.265Z,11.42
2023-05-16T00:54:40.749Z,11.40
2023-05-16T00:57:42.179Z,11.50
2023-05-16T01:00:45.014Z,11.47
2023-05-16T01:03:48.314Z,11.40
2023-05-16T01:06:49.793Z,11.42
2023-05-16T01:09:51.178Z,11.46
2023-05-16T01:13:02.022Z,11.53
2023-05-16T01:16:35.931Z,11.53
2023-05-16T01:19:56.136Z,11.53
2023-05-16T01:23:23.853Z,11.40
2023-05-16T01:26:26.665Z,11.37
2023-05-16T01:29:28.072Z,11.45
2023-05-16T01:32:29.511Z,11.40
2023-05-16T01:35:31.079Z,11.05
2023-05-16T01:38:43.424Z,10.92
2023-05-16T01:41:47.883Z,10.99
2023-05-16T01:45:07.711Z,10.86
2023-05-16T01:48:10.796Z,10.86
2023-05-16T01:51:12.220Z,10.95
2023-05-16T01:54:13.842Z,10.93
2023-05-16T01:57:15.299Z,11.06
2023-05-16T02:00:16.657Z,11.07
2023-05-16T02:03:18.694Z,11.17
2023-05-16T02:06:20.108Z,11.16
2023-05-16T02:09:21.698Z,11.15
2023-05-16T02:12:24.535Z,11.06
2023-05-16T02:15:26.182Z,10.98
2023-05-16T02:18:28.359Z,10.95
2023-05-16T02:21:29.708Z,10.99
2023-05-16T02:24:31.092Z,11.06
2023-05-16T02:27:32.583Z,10.94
2023-05-16T02:30:33.962Z,10.92
2023-05-16T02:33:35.393Z,11.13
2023-05-16T02:36:36.792Z,11.17
2023-05-16T02:39:38.164Z,11.12
2023-05-16T02:42:39.494Z,11.13
2023-05-16T02:45:40.967Z,11.23
2023-05-16T02:48:42.300Z,11.24
2023-05-16T02:51:43.668Z,11.11
2023-05-16T02:54:48.567Z,11.16
2023-05-16T02:57:53.513Z,11.15
2023-05-16T03:00:54.933Z,11.14
2023-05-16T03:03:56.518Z,11.19
2023-05-16T03:06:58.266Z,11.20
2023-05-16T03:09:59.649Z,11.25
2023-05-16T03:13:01.149Z,11.19
2023-05-16T03:16:03.090Z,11.16
2023-05-16T03:19:07.587Z,11.31
2023-05-16T03:22:09.094Z,11.27
2023-05-16T03:25:10.456Z,11.18
2023-05-16T03:28:13.329Z,11.15
2023-05-16T03:31:16.772Z,11.13
2023-05-16T03:34:18.156Z,11.17
2023-05-16T03:37:19.513Z,11.18
2023-05-16T03:40:20.989Z,11.15
2023-05-16T03:43:22.331Z,10.97
2023-05-16T03:46:23.862Z,10.96
2023-05-16T03:49:26.717Z,10.77
2023-05-16T03:52:28.084Z,10.60
2023-05-16T03:55:30.926Z,10.60
2023-05-16T03:58:32.433Z,10.64
2023-05-16T04:01:33.895Z,10.57
2023-05-16T04:04:35.340Z,10.52
2023-05-16T04:07:37.126Z,10.55
2023-05-16T04:10:38.540Z,10.52
2023-05-16T04:13:40.025Z,10.48
2023-05-16T04:16:41.645Z,10.59
2023-05-16T04:19:43.129Z,10.44
2023-05-16T04:22:44.470Z,10.34
2023-05-16T04:25:46.200Z,10.26
2023-05-16T04:28:47.563Z,10.30
2023-05-16T04:31:49.061Z,10.35
2023-05-16T04:34:53.241Z,10.42
2023-05-16T04:37:54.747Z,10.42
2023-05-16T04:40:56.106Z,10.43
2023-05-16T04:43:57.565Z,10.41
2023-05-16T04:46:59.624Z,10.50
2023-05-16T04:50:01.081Z,10.62
2023-05-16T04:53:02.482Z,10.60
2023-05-16T04:56:05.851Z,10.57
2023-05-16T04:59:07.208Z,10.67
2023-05-16T05:02:08.890Z,10.72
2023-05-16T05:05:10.487Z,10.67
2023-05-16T05:08:11.877Z,10.68
2023-05-16T05:11:13.226Z,10.74
2023-05-16T05:14:14.580Z,10.80
2023-05-16T05:17:16.883Z,10.90
2023-05-16T05:20:18.241Z,10.94
2023-05-16T05:23:20.805Z,10.92
2023-05-16T05:26:22.275Z,10.83
2023-05-16T05:29:23.684Z,10.87
2023-05-16T05:32:25.527Z,10.74
2023-05-16T05:35:27.274Z,10.67
2023-05-16T05:38:29.042Z,10.60
2023-05-16T05:41:30.445Z,10.43
2023-05-16T05:44:31.784Z,10.50
2023-05-16T05:47:33.239Z,10.36
2023-05-16T05:50:34.643Z,10.52
2023-05-16T05:53:36.140Z,10.48
2023-05-16T05:56:37.570Z,10.52
2023-05-16T05:59:38.922Z,10.54
2023-05-16T06:02:41.705Z,10.53
2023-05-16T06:05:43.466Z,10.49
2023-05-16T06:08:44.852Z,10.55
2023-05-16T06:11:46.241Z,10.52
2023-05-16T06:14:47.582Z,10.51
2023-05-16T06:17:49.180Z,10.56
2023-05-16T06:20:50.582Z,10.55
2023-05-16T06:23:52.006Z,10.63
2023-05-16T06:26:53.676Z,10.49
2023-05-16T06:29:55.112Z,10.55
2023-05-16T06:32:56.501Z,10.53
2023-05-16T06:35:57.958Z,10.54
2023-05-16T06:38:59.310Z,10.47
2023-05-16T06:42:00.860Z,10.52
2023-05-16T06:45:02.273Z,10.68
2023-05-16T06:48:04.319Z,10.66
2023-05-16T06:51:05.774Z,10.65
2023-05-16T06:54:07.195Z,10.76
2023-05-16T06:57:08.674Z,10.62
2023-05-16T07:00:10.339Z,10.58
2023-05-16T07:03:11.932Z,10.57
2023-05-16T07:06:13.470Z,10.70
2023-05-16T07:09:14.855Z,10.55
2023-05-16T07:12:16.501Z,10.60
2023-05-16T07:15:17.997Z,10.76
2023-05-16T07:18:19.361Z,10.62
2023-05-16T07:21:20.745Z,10.77
2023-05-16T07:24:22.538Z,10.69
2023-05-16T07:27:23.934Z,10.52
2023-05-16T07:30:25.508Z,10.58
2023-05-16T07:33:27.431Z,10.70
2023-05-16T07:36:28.877Z,10.40
2023-05-16T07:39:30.417Z,10.43
2023-05-16T07:42:31.840Z,10.53
2023-05-16T07:45:33.264Z,10.48
2023-05-16T07:48:34.706Z,10.50
2023-05-16T07:51:36.569Z,10.44
2023-05-16T07:54:37.967Z,10.42
2023-05-16T07:57:39.367Z,10.33
2023-05-16T08:00:40.846Z,10.32
2023-05-16T08:03:42.341Z,10.38
2023-05-16T08:06:43.968Z,10.42
2023-05-16T08:09:45.434Z,10.34
2023-05-16T08:12:48.336Z,10.44
2023-05-16T08:15:49.858Z,10.45
2023-05-16T08:18:51.642Z,10.39
2023-05-16T08:21:53.083Z,10.32
2023-05-16T08:24:57.785Z,10.16
2023-05-16T08:27:59.143Z,10.17
2023-05-16T08:31:00.707Z,10.33
2023-05-16T08:34:02.156Z,10.17
2023-05-16T08:37:03.572Z,10.04
2023-05-16T08:40:08.366Z,10.00
2023-05-16T08:43:09.834Z,10.11
2023-05-16T08:46:13.863Z,9.89
2023-05-16T08:49:15.252Z,9.88
2023-05-16T08:52:18.253Z,10.06
2023-05-16T08:55:19.956Z,10.18
2023-05-16T08:58:21.664Z,10.37
2023-05-16T09:01:23.173Z,10.26
2023-05-16T09:04:25.611Z,10.18
2023-05-16T09:07:27.144Z,10.34
2023-05-16T09:10:28.531Z,10.20
2023-05-16T09:13:29.943Z,10.13
2023-05-16T09:16:31.447Z,10.13
2023-05-16T09:19:37.072Z,10.16
2023-05-16T09:22:38.777Z,10.12
2023-05-16T09:25:40.190Z,10.30
2023-05-16T09:28:41.618Z,10.36
2023-05-16T09:31:43.113Z,10.25
2023-05-16T09:34:45.722Z,10.41
2023-05-16T09:37:50.540Z,10.37
2023-05-16T09:40:52.125Z,10.38
2023-05-16T09:43:53.531Z,10.25
2023-05-16T09:46:55.547Z,10.20
2023-05-16T09:49:57.060Z,10.35
2023-05-16T09:52:58.457Z,10.24
2023-05-16T09:56:07.770Z,10.39
2023-05-16T09:59:11.099Z,10.43
2023-05-16T10:02:13.031Z,10.40
2023-05-16T10:05:14.975Z,10.34
2023-05-16T10:08:18.117Z,10.31
2023-05-16T10:11:19.582Z,10.21
2023-05-16T10:14:21.140Z,10.17
2023-05-16T10:17:22.538Z,10.08
2023-05-16T10:20:23.996Z,10.04
2023-05-16T10:23:25.667Z,10.34
2023-05-16T10:26:27.112Z,10.44
2023-05-16T10:29:28.538Z,10.30
2023-05-16T10:32:30.152Z,10.25
2023-05-16T10:35:31.698Z,10.38
2023-05-16T10:38:33.092Z,10.26
2023-05-16T10:41:34.746Z,10.09
2023-05-16T10:44:36.145Z,10.08
2023-05-16T10:47:37.605Z,10.18
2023-05-16T10:50:39.211Z,10.25
2023-05-16T10:53:40.633Z,10.34
2023-05-16T10:56:43.216Z,10.27
2023-05-16T10:59:47.499Z,10.41
2023-05-16T11:02:48.989Z,10.32
2023-05-16T11:05:54.265Z,10.41
2023-05-16T11:09:10.853Z,10.38
2023-05-16T11:12:12.833Z,10.31
2023-05-16T11:15:32.318Z,10.26
2023-05-16T11:18:34.131Z,10.45
2023-05-16T11:21:54.350Z,10.50
2023-05-16T11:24:55.858Z,10.45
2023-05-16T11:27:57.264Z,10.50
2023-05-16T11:30:59.962Z,10.45
2023-05-16T11:34:01.650Z,10.71
2023-05-16T11:37:03.092Z,10.62
2023-05-16T11:40:04.795Z,10.73
2023-05-16T11:43:07.298Z,10.93
2023-05-16T11:46:15.587Z,10.85
2023-05-16T11:49:17.575Z,10.64
2023-05-16T11:52:19.171Z,10.64
2023-05-16T11:55:32.412Z,10.45
2023-05-16T11:58:42.711Z,10.58
2023-05-16T12:01:44.609Z,10.45
2023-05-16T12:04:50.620Z,10.35
2023-05-16T12:07:54.746Z,10.47
2023-05-16T12:10:56.245Z,10.07
2023-05-16T12:13:57.689Z,10.15
2023-05-16T12:16:59.235Z,10.12
2023-05-16T12:20:00.733Z,10.10
2023-05-16T12:23:02.211Z,10.07
2023-05-16T12:26:07.906Z,10.07
2023-05-16T12:29:11.521Z,10.22
2023-05-16T12:32:13.117Z,10.02
2023-05-16T12:35:16.992Z,10.09
2023-05-16T12:38:19.455Z,10.11
2023-05-16T12:41:21.746Z,10.07
2023-05-16T12:44:24.239Z,10.13
2023-05-16T12:47:34.819Z,10.11
2023-05-16T12:50:39.678Z,10.14
2023-05-16T12:53:41.824Z,10.03
2023-05-16T12:56:43.883Z,9.82
2023-05-16T12:59:45.357Z,9.91
2023-05-16T13:02:47.629Z,9.99
2023-05-16T13:05:49.166Z,10.11
2023-05-16T13:08:50.548Z,10.15
2023-05-16T13:11:52.472Z,10.10
2023-05-16T13:14:54.695Z,10.19
2023-05-16T13:17:56.212Z,10.09
2023-05-16T13:20:57.619Z,10.13
2023-05-16T13:23:59.349Z,10.01
2023-05-16T13:27:00.832Z,10.00
2023-05-16T13:30:02.214Z,9.88
2023-05-16T13:33:03.674Z,9.87
2023-05-16T13:36:05.980Z,9.97
2023-05-16T13:39:09.549Z,9.90
2023-05-16T13:42:11.025Z,9.88
2023-05-16T13:45:12.925Z,10.00
2023-05-16T13:48:14.461Z,9.87
2023-05-16T13:51:16.211Z,9.80
2023-05-16T13:54:17.996Z,9.99
2023-05-16T13:57:19.403Z,9.91
2023-05-16T14:03:25.351Z,9.89
2023-05-16T14:06:26.823Z,10.01
2023-05-16T14:09:28.218Z,9.96
2023-05-16T14:12:29.571Z,9.97
2023-05-16T14:15:31.311Z,9.84
2023-05-16T14:18:33.251Z,9.76
2023-05-16T14:21:34.671Z,9.81
2023-05-16T14:24:36.162Z,9.79
2023-05-16T14:27:37.581Z,9.60
2023-05-16T14:30:39.045Z,9.64
2023-05-16T14:33:41.134Z,9.74
2023-05-16T14:36:42.743Z,9.74
2023-05-16T14:39:46.449Z,9.74
2023-05-16T14:42:47.937Z,9.75
2023-05-16T14:45:49.454Z,9.74
2023-05-16T14:48:51.351Z,9.76
2023-05-16T14:51:52.904Z,9.75
2023-05-16T14:54:54.303Z,9.71
2023-05-16T14:57:59.556Z,9.84
2023-05-16T15:01:01.351Z,9.76
2023-05-16T15:04:02.755Z,9.78
2023-05-16T15:07:04.335Z,9.72
2023-05-16T15:10:06.932Z,9.84
2023-05-16T15:13:08.336Z,9.73
2023-05-16T15:16:09.857Z,9.75
2023-05-16T15:19:11.480Z,9.68
2023-05-16T15:22:12.946Z,9.69
2023-05-16T15:25:14.389Z,9.65
2023-05-16T15:28:16.591Z,9.79
2023-05-16T15:31:17.998Z,9.75
2023-05-16T15:34:19.569Z,9.73
2023-05-16T15:37:21.329Z,9.79
2023-05-16T15:40:26.766Z,9.76
2023-05-16T15:43:28.677Z,9.73
2023-05-16T15:46:32.938Z,9.74
2023-05-16T15:49:34.590Z,9.84
2023-05-16T15:52:36.042Z,9.87
2023-05-16T15:55:37.513Z,9.93
2023-05-16T15:58:39.094Z,9.93
2023-05-16T16:01:41.065Z,10.12
2023-05-16T16:04:42.629Z,10.17
2023-05-16T16:07:44.193Z,10.15
2023-05-16T16:10:46.100Z,10.22
2023-05-16T16:13:47.508Z,10.40
2023-05-16T16:16:48.937Z,10.15
2023-05-16T16:19:50.623Z,10.09
2023-05-16T16:22:52.327Z,10.21
2023-05-16T16:25:53.807Z,10.23
2023-05-16T16:28:55.362Z,10.32
2023-05-16T16:31:56.843Z,10.18
2023-05-16T16:34:58.252Z,10.19
2023-05-16T16:38:06.870Z,10.47
2023-05-16T16:41:08.946Z,10.47
2023-05-16T16:44:10.548Z,10.44
2023-05-16T16:47:12.384Z,10.32
2023-05-16T16:50:13.987Z,10.43
2023-05-16T16:53:15.599Z,10.26
2023-05-16T16:56:17.302Z,10.39
2023-05-16T16:59:18.758Z,10.62
2023-05-16T17:02:20.226Z,10.68
2023-05-16T17:05:21.666Z,10.69
2023-05-16T17:08:23.042Z,10.72
2023-05-16T17:11:24.558Z,10.49
2023-05-16T17:14:26.339Z,10.67
2023-05-16T17:17:27.939Z,10.81
2023-05-16T17:20:29.463Z,10.73
2023-05-16T17:23:31.034Z,10.73
2023-05-16T17:26:32.450Z,10.78
2023-05-16T17:29:33.883Z,10.84
2023-05-16T17:32:35.328Z,10.92
2023-05-16T17:35:36.865Z,10.96
2023-05-16T17:38:38.310Z,11.04
2023-05-16T17:41:39.791Z,10.95
2023-05-16T17:44:41.476Z,10.87
2023-05-16T17:47:43.124Z,10.67
2023-05-16T17:50:44.807Z,10.64
2023-05-16T17:53:46.362Z,10.48
2023-05-16T17:56:48.033Z,10.62
2023-05-16T17:59:49.437Z,10.67
2023-05-16T18:02:52.260Z,10.55
2023-05-16T18:05:54.001Z,10.79
2023-05-16T18:08:55.574Z,10.76
2023-05-16T18:11:56.987Z,10.66
2023-05-16T18:14:58.402Z,10.71
2023-05-16T18:18:00.182Z,10.70
2023-05-16T18:21:01.677Z,10.71
2023-05-16T18:24:03.112Z,10.74
2023-05-16T18:27:04.577Z,10.51
2023-05-16T18:30:06.265Z,10.40
2023-05-16T18:33:07.725Z,10.46
2023-05-16T18:36:09.220Z,10.42
2023-05-16T18:39:10.817Z,10.35
2023-05-16T18:42:12.274Z,10.26
2023-05-16T18:45:13.711Z,10.06
2023-05-16T18:48:15.344Z,10.12
2023-05-16T18:51:16.943Z,10.12
2023-05-16T18:54:18.333Z,10.15
2023-05-16T18:57:19.777Z,9.84
2023-05-16T19:00:21.407Z,9.76
2023-05-16T19:03:23.061Z,9.61
2023-05-16T19:06:24.569Z,9.72
2023-05-16T19:09:26.114Z,9.70
2023-05-16T19:12:27.554Z,9.67
2023-05-16T19:15:29.202Z,9.60
2023-05-16T19:18:30.806Z,9.60
2023-05-16T19:21:32.289Z,9.47
2023-05-16T19:24:33.667Z,9.38
2023-05-16T19:27:35.877Z,9.29
2023-05-16T19:30:39.317Z,9.35
2023-05-16T19:33:42.756Z,9.18
2023-05-16T19:36:44.180Z,9.06
2023-05-16T19:39:45.602Z,9.03
2023-05-16T19:42:46.997Z,8.94
2023-05-16T19:45:48.621Z,8.86
2023-05-16T19:48:50.270Z,8.71
2023-05-16T19:51:51.841Z,8.56
2023-05-16T19:54:53.319Z,8.52
2023-05-16T19:57:55.027Z,8.60
2023-05-16T20:00:57.266Z,8.55
2023-05-16T20:04:00.750Z,8.48
2023-05-16T20:07:02.263Z,8.29
2023-05-16T20:10:03.667Z,8.13
2023-05-16T20:13:05.049Z,7.99
2023-05-16T20:16:06.672Z,8.01
2023-05-16T20:19:08.165Z,8.07
2023-05-16T20:22:10.017Z,8.02
2023-05-16T20:25:11.957Z,8.02
2023-05-16T20:28:13.442Z,7.98
2023-05-16T20:31:14.846Z,7.95
2023-05-16T20:34:16.256Z,7.94
2023-05-16T20:37:17.665Z,7.90
2023-05-16T20:40:19.041Z,7.88
2023-05-16T20:43:20.473Z,7.70
2023-05-16T20:46:21.840Z,7.67
2023-05-16T20:49:23.266Z,7.59
2023-05-16T20:52:24.726Z,7.55
2023-05-16T20:55:26.341Z,7.47
2023-05-16T20:58:27.981Z,7.37
2023-05-16T21:01:29.547Z,7.41
2023-05-16T21:04:31.191Z,7.40
2023-05-16T21:07:32.737Z,7.41
2023-05-16T21:10:34.130Z,7.28
2023-05-16T21:13:35.815Z,7.16
2023-05-16T21:16:37.259Z,7.05
2023-05-16T21:19:38.845Z,7.04
2023-05-16T21:22:40.870Z,7.03
2023-05-16T21:25:42.327Z,6.89
2023-05-16T21:28:54.532Z,6.88
2023-05-16T21:31:56.736Z,6.92
2023-05-16T21:35:01.331Z,6.91
2023-05-16T21:38:02.777Z,6.84
2023-05-16T21:41:04.192Z,6.78
2023-05-16T21:44:06.352Z,6.65
2023-05-16T21:47:07.741Z,6.62
2023-05-16T21:50:09.416Z,6.58
2023-05-16T21:53:10.851Z,6.54
2023-05-16T21:56:12.566Z,6.42
2023-05-16T21:59:14.025Z,6.32
2023-05-16T22:02:15.406Z,6.22
2023-05-16T22:05:19.186Z,6.10
2023-05-16T22:08:20.630Z,6.15
2023-05-16T22:11:22.348Z,6.17
2023-05-16T22:14:23.765Z,6.14
2023-05-16T22:17:25.301Z,6.09
2023-05-16T22:20:26.790Z,6.09
2023-05-16T22:23:28.263Z,5.96
2023-05-16T22:26:29.715Z,6.09
2023-05-16T22:29:37.734Z,5.87
2023-05-16T22:32:39.189Z,5.78
2023-05-16T22:35:40.653Z,5.67
2023-05-16T22:38:42.027Z,5.61
2023-05-16T22:41:43.510Z,5.58
2023-05-16T22:44:44.910Z,5.45
2023-05-16T22:47:46.511Z,5.40
2023-05-16T22:50:47.960Z,5.28
2023-05-16T22:53:49.390Z,5.30
2023-05-16T22:56:51.477Z,5.30
2023-05-16T22:59:52.878Z,5.29
2023-05-16T23:02:54.593Z,5.39
2023-05-16T23:05:56.066Z,5.17
2023-05-16T23:08:57.601Z,5.11
2023-05-16T23:11:59.172Z,5.13
2023-05-16T23:15:00.605Z,4.98
2023-05-16T23:18:02.087Z,4.89
2023-05-16T23:21:03.624Z,4.80
2023-05-16T23:24:05.092Z,4.78
2023-05-16T23:27:06.502Z,4.65
2023-05-16T23:30:09.093Z,4.68
2023-05-16T23:33:10.651Z,4.70
2023-05-16T23:36:12.174Z,4.76
2023-05-16T23:39:13.636Z,4.75
2023-05-16T23:42:15.030Z,4.69
2023-05-16T23:45:16.502Z,4.68
2023-05-16T23:48:18.059Z,4.75
2023-05-16T23:51:19.579Z,4.78
2023-05-16T23:54:21.028Z,4.82
2023-05-16T23:57:22.404Z,4.58
